Wednesday, December 19, 2018, 3:45 PM GMT
Back to Local

CYHU, Saint Hubert Airport

Location: , , Canada Lat: 45.517
Local Time: 3:45 PM GMT (15:45 GMT) Lon: -73.417
Time Zone: GMT Elev: 88 ft

Show me the last for .
Show Coded

Time T Td Feel RH Dir Speed Gust Alt SLP Vis Weather Sky Remarks
2018-12-19 15:36 21 16 14 79 160° 6 - 30.06 30.07 9 OVC023 None
2018-12-19 15:21 21 14 15 73 170° 5 - 30.07 30.08 7 -SN OVC023 None
2018-12-19 15:00 19 12 11 73 170° 6 - 30.07 30.09 9 OVC023 None
2018-12-19 14:35 19 10 11 67 180° 6 - 30.08 30.09 9 BKN023 OVC032 None
2018-12-19 14:00 18 9 8 67 190° 7 - 30.09 30.10 9 SCT034 None
2018-12-19 13:00 14 9 6 78 170° 5 - 30.09 30.10 9 CLR None
2018-12-19 12:00 14 9 5 78 180° 6 - 30.07 30.09 9 FEW240 None
2018-12-19 11:00 16 9 6 72 230° 7 - 30.10 30.11 9 CLR None
2018-12-19 10:00 14 9 2 78 240° 9 - 30.09 30.10 9 CLR None
2018-12-19 09:00 16 9 6 72 260° 7 - 30.10 30.11 9 CLR None
2018-12-19 08:00 16 9 2 72 250° 13 - 30.10 30.11 9 CLR None
2018-12-19 07:00 16 9 3 72 250° 12 - 30.10 30.11 9 OVC160 None
2018-12-19 06:00 16 10 5 78 240° 8 - 30.09 30.10 9 CLR None
2018-12-19 05:00 18 10 6 72 260° 9 - 30.10 30.11 9 CLR None
2018-12-19 04:00 18 10 7 72 250° 8 - 30.09 30.10 9 BKN160 None
2018-12-19 03:00 19 10 10 67 280° 7 - 30.10 30.11 9 BKN160 None
2018-12-19 02:00 19 9 4 62 280° 9 17 30.11 30.12 9 CLR None
2018-12-19 01:00 19 9 8 62 280° 10 - 30.11 30.12 9 FEW240 None
2018-12-19 00:00 19 9 8 62 290° 10 - 30.11 30.12 9 CLR None
2018-12-18 23:00 21 9 6 57 290° 13 21 30.10 30.11 9 FEW033 None
2018-12-18 22:00 21 9 6 57 300° 14 20 30.09 30.10 9 CLR None
2018-12-18 21:00 21 9 4 57 300° 17 24 30.08 30.09 9 SCT035 None
2018-12-18 20:00 23 10 7 57 300° 16 24 30.06 30.07 9 BKN039 None
2018-12-18 19:00 25 10 8 53 290° 20 29 30.04 30.05 9 CLR None
2018-12-18 18:00 25 10 11 53 310° 20 - 30.02 30.03 9 CLR None
2018-12-18 17:00 23 12 7 62 300° 17 24 30.03 30.03 9 CLR None
2018-12-18 16:00 21 10 6 62 280° 21 - 30.03 30.04 9 FEW055 None

Support USWX by starting your Amazon purchase here.